Flood From: 22-02-2018 16:00 Until: 23-02-2018 16:00 warning for: Flood Level: Yellow info button

Although rather usual in this region, locally or potentially dangerous phenomena are expected. (such as local winds, summer thunderstorms, rising streams or high waves) Be aware and pay attention to the latest weather updates, especially if you carry out activities exposed to weather or close to a stream or shoreline. 


Meteo18 Weather Cam more information Meteo18 Weather Cam


Thunder radar more information blitzortung!


Rain radar more information rain snow radar


Visit our other weather sites:

Template documentation
and downloads

And another site



Weather Underground History page Text

Daily Summary for November 24, 2017 Units:  Metric    English   Both
« Previous Day
Next Day »
Daily Weekly Monthly Yearly Custom
  High: Low: Average:
Temperature: -17.8 °C -13 °C -11.7 °C
Dew Point: -17.8 °C -14.2 °C -12.6 °C
Humidity: Humidity % 77 % 89 %
Wind Speed: 0 km/h 0 km/h 9.8 km/h
Wind Gust: 0 km/h - -
Wind:- - SW
Pressure: 0 hPa 34279.9 hPa -
Precipitation: 154.94 mm    
Historical Graphs
 
 
Tabular Data for November 24, 2017
Time Temperature Dew Point Pressure Wind Wind Speed Wind Gust Humidity Rainfall Rate (Hourly)
-17.8 °C -17.8 °C 0 hPa Calm     Humidity % 0 mm
00:02 -11.7 °C -13.6 °C 34327.3 hPa SSW 2.6 km/h 7.7 km/h 80 % 0 mm
00:07 -11.7 °C -13.6 °C 34327.3 hPa SW 7.7 km/h 7.7 km/h 80 % 0 mm
00:12 -11.7 °C -13.6 °C 34337.4 hPa SSW 2.6 km/h 7.7 km/h 80 % 0 mm
00:17 -11.7 °C -13.5 °C 34327.3 hPa SSW 5.1 km/h 7.7 km/h 80 % 0 mm
00:22 -11.7 °C -13.5 °C 34327.3 hPa SSW 2.6 km/h 7.7 km/h 80 % 0 mm
00:27 -11.7 °C -13.6 °C 34327.3 hPa Calm   7.7 km/h 80 % 0 mm
00:47 -12 °C -13.6 °C 34327.3 hPa SW 2.6 km/h 5.1 km/h 83 % 0 mm
00:57 -11.8 °C -13.3 °C 34313.7 hPa SSW 5.1 km/h 7.7 km/h 84 % 0 mm
01:12 -11.7 °C -13.1 °C 34303.6 hPa SW 10.3 km/h 15.6 km/h 84 % 0 mm
01:17 -11.6 °C -12.9 °C 34313.7 hPa SW 15.6 km/h 15.6 km/h 85 % 0 mm
01:22 -11.5 °C -12.9 °C 34313.7 hPa SSW 15.6 km/h 18.2 km/h 84 % 0 mm
01:37 -11.3 °C -12.8 °C 34303.6 hPa SW 12.9 km/h 25.9 km/h 83 % 0 mm
01:42 -11.3 °C -12.8 °C 34303.6 hPa SSW 10.3 km/h 25.9 km/h 83 % 0 mm
01:47 -11.3 °C -12.8 °C 34303.6 hPa SSW 7.7 km/h 20.8 km/h 83 % 0 mm
01:57 -11.3 °C -12.7 °C 34303.6 hPa SSW 7.7 km/h 15.6 km/h 84 % 0 mm
02:02 -11.3 °C -12.7 °C 34303.6 hPa SW 12.9 km/h 15.6 km/h 84 % 0 mm
02:07 -11.3 °C -12.8 °C 34303.6 hPa South 7.7 km/h 20.8 km/h 83 % 0 mm
02:12 -11.3 °C -12.9 °C 34303.6 hPa South 5.1 km/h 20.8 km/h 83 % 0 mm
02:22 -11.5 °C -12.9 °C 34303.6 hPa SSW 5.1 km/h 20.8 km/h 84 % 0 mm
02:42 -11.8 °C -13.1 °C 34303.6 hPa SSW 2.6 km/h 12.9 km/h 86 % 0 mm
02:47 -11.9 °C -13.1 °C 34303.6 hPa South 5.1 km/h 12.9 km/h 86 % 0 mm
03:02 -11.9 °C -13.2 °C 34303.6 hPa SSW 5.1 km/h 12.9 km/h 86 % 0 mm
03:12 -12.1 °C -13.3 °C 34303.6 hPa SSW 5.1 km/h 10.3 km/h 86 % 0 mm
03:17 -12.2 °C -13.3 °C 34293.4 hPa SSE 5.1 km/h 10.3 km/h 87 % 0 mm
03:52 -12.4 °C -13.6 °C 34279.9 hPa SSW 2.6 km/h 10.3 km/h 87 % 0 mm
04:02 -12.5 °C -13.7 °C 34279.9 hPa SW 5.1 km/h 10.3 km/h 87 % 0 mm
04:17 -12.6 °C -13.8 °C 34279.9 hPa South 5.1 km/h 7.7 km/h 86 % 0 mm
04:22 -12.6 °C -13.8 °C 34279.9 hPa Calm   10.3 km/h 87 % 0 mm
04:32 -12.8 °C -13.9 °C 34293.4 hPa SSW 2.6 km/h 10.3 km/h 87 % 0 mm
04:42 -12.7 °C -13.8 °C 34279.9 hPa SSW 2.6 km/h 7.7 km/h 88 % 0 mm
04:52 -12.6 °C -13.8 °C 34279.9 hPa Calm   5.1 km/h 87 % 0 mm
04:57 -12.6 °C -13.7 °C 34279.9 hPa SSW 2.6 km/h 5.1 km/h 87 % 0 mm
05:02 -12.5 °C -13.7 °C 34279.9 hPa SSW 5.1 km/h 5.1 km/h 86 % 0 mm
05:07 -12.4 °C -13.7 °C 34279.9 hPa SSW 2.6 km/h 5.1 km/h 86 % 0 mm
05:12 -12.4 °C -13.6 °C 34293.4 hPa SSW 2.6 km/h 5.1 km/h 86 % 0 mm
05:17 -12.4 °C -13.7 °C 34279.9 hPa Calm   5.1 km/h 85 % 0 mm
05:22 -12.4 °C -13.6 °C 34279.9 hPa SSW 2.6 km/h 5.1 km/h 86 % 0 mm
05:32 -12.4 °C -13.7 °C 34279.9 hPa SSW 2.6 km/h 5.1 km/h 86 % 0 mm
05:42 -12.6 °C -13.8 °C 34279.9 hPa Calm   5.1 km/h 86 % 0 mm
05:47 -12.7 °C -13.8 °C 34279.9 hPa SSW 2.6 km/h 5.1 km/h 87 % 0 mm
05:57 -12.7 °C -13.9 °C 34279.9 hPa South 2.6 km/h 7.7 km/h 86 % 0 mm
06:02 -12.8 °C -14.1 °C 34279.9 hPa SSW 2.6 km/h 7.7 km/h 86 % 0 mm
06:12 -12.9 °C -14.1 °C 34293.4 hPa SSW 2.6 km/h 10.3 km/h 86 % 0 mm
06:17 -13 °C -14.2 °C 34293.4 hPa SSW 2.6 km/h 7.7 km/h 86 % 0 mm
06:22 -12.8 °C -13.9 °C 34279.9 hPa SW 2.6 km/h 7.7 km/h 87 % 0 mm
06:27 -12.7 °C -13.9 °C 34293.4 hPa South 2.6 km/h 10.3 km/h 86 % 0 mm
06:32 -12.6 °C -13.8 °C 34293.4 hPa South 5.1 km/h 10.3 km/h 86 % 0 mm
06:42 -12.6 °C -14.1 °C 34293.4 hPa Calm   10.3 km/h 84 % 0 mm
06:47 -12.6 °C -13.9 °C 34293.4 hPa Calm   10.3 km/h 85 % 0 mm
06:57 -12.6 °C -13.8 °C 34279.9 hPa SSE 2.6 km/h 10.3 km/h 86 % 0 mm
07:02 -12.4 °C -13.8 °C 34293.4 hPa Calm   10.3 km/h 85 % 0 mm
07:17 -12.4 °C -13.8 °C 34293.4 hPa Calm   5.1 km/h 85 % 0 mm
07:32 -12.2 °C -13.6 °C 34293.4 hPa Calm   5.1 km/h 84 % 0 mm
07:42 -12.1 °C -13.6 °C 34293.4 hPa South 2.6 km/h 5.1 km/h 83 % 0 mm
07:47 -12.1 °C -13.6 °C 34293.4 hPa South 2.6 km/h 5.1 km/h 83 % 0 mm
07:52 -12.1 °C -13.7 °C 34293.4 hPa SSW 5.1 km/h 5.1 km/h 83 % 0 mm
08:02 -11.7 °C -13.4 °C 34303.6 hPa SW 10.3 km/h 10.3 km/h 81 % 0 mm
08:17 -11.2 °C -13.3 °C 34313.7 hPa WSW 12.9 km/h 31.1 km/h 78 % 0 mm
08:22 -11.2 °C -13.2 °C 34313.7 hPa SW 18.2 km/h 31.1 km/h 78 % 0 mm
08:27 -11.1 °C -13.3 °C 34303.6 hPa SW 15.6 km/h 31.1 km/h 77 % 0 mm
08:32 -11.1 °C -13.2 °C 34313.7 hPa SW 10.3 km/h 31.1 km/h 77 % 0 mm
08:57 -11.1 °C -12.9 °C 34327.3 hPa SSW 18.2 km/h 28.5 km/h 80 % 0 mm
09:07 -11 °C -12.7 °C 34327.3 hPa WSW 18.2 km/h 38.8 km/h 82 % 0 mm
09:12 -10.9 °C -12.6 °C 34327.3 hPa SW 10.3 km/h 38.8 km/h 82 % 0 mm
09:22 -10.9 °C -12.5 °C 34327.3 hPa West 7.7 km/h 38.8 km/h 83 % 0 mm
09:42 -10.9 °C -12.3 °C 34327.3 hPa WSW 15.6 km/h 31.1 km/h 85 % 0 mm
09:52 -10.9 °C -12.3 °C 34337.4 hPa SW 31.1 km/h 33.6 km/h 85 % 0 mm
10:02 -10.9 °C -12.2 °C 34347.6 hPa WSW 15.6 km/h 33.6 km/h 86 % 0 mm
10:07 -10.9 °C -12.2 °C 34347.6 hPa SSW 15.6 km/h 33.6 km/h 86 % 0 mm
10:17 -10.9 °C -12.1 °C 34347.6 hPa WSW 7.7 km/h 33.6 km/h 87 % 0 mm
10:22 -10.9 °C -12.1 °C 34347.6 hPa WSW 12.9 km/h 33.6 km/h 87 % 0 mm
10:32 -10.9 °C -12.1 °C 34347.6 hPa SSW 15.6 km/h 25.9 km/h 87 % 0 mm
10:42 -10.9 °C -12 °C 34347.6 hPa SSW 12.9 km/h 28.5 km/h 88 % 0 mm
10:52 -10.9 °C -11.9 °C 34361.1 hPa SSW 12.9 km/h 25.9 km/h 89 % 0 mm
11:02 -10.9 °C -11.9 °C 34347.6 hPa SSW 12.9 km/h 28.5 km/h 89 % 0 mm
11:07 -10.8 °C -11.8 °C 34361.1 hPa SW 20.8 km/h 28.5 km/h 89 % 0 mm
11:12 -10.8 °C -11.8 °C 34361.1 hPa WSW 15.6 km/h 28.5 km/h 88 % 0 mm
11:17 -10.8 °C -11.8 °C 34361.1 hPa SSW 18.2 km/h 28.5 km/h 88 % 0 mm
11:22 -10.7 °C -11.8 °C 34361.1 hPa SW 33.6 km/h 33.6 km/h 88 % 0 mm
11:32 -10.7 °C -11.8 °C 34361.1 hPa WSW 15.6 km/h 41.4 km/h 88 % 0 mm
11:42 -10.7 °C -11.8 °C 34371.3 hPa SW 2.6 km/h 33.6 km/h 88 % 0 mm
11:47 -10.7 °C -11.8 °C 34361.1 hPa SW 12.9 km/h 33.6 km/h 88 % 0 mm
11:52 -10.7 °C -11.7 °C 34361.1 hPa SW 12.9 km/h 33.6 km/h 88 % 0 mm
12:02 -10.7 °C -11.7 °C 34361.1 hPa SW 18.2 km/h 33.6 km/h 88 % 0 mm
12:12 -10.7 °C -11.8 °C 34361.1 hPa SW 15.6 km/h 31.1 km/h 88 % 0 mm
12:17 -10.7 °C -11.8 °C 34371.3 hPa SW 28.5 km/h 28.5 km/h 88 % 0 mm
12:22 -10.7 °C -11.8 °C 34361.1 hPa SW 12.9 km/h 28.5 km/h 88 % 0 mm
12:32 -10.7 °C -11.8 °C 34371.3 hPa SW 15.6 km/h 31.1 km/h 88 % 0 mm
12:42 -10.7 °C -11.8 °C 34371.3 hPa WSW 18.2 km/h 33.6 km/h 88 % 0 mm
12:47 -10.7 °C -11.7 °C 34371.3 hPa SSW 15.6 km/h 36.2 km/h 89 % 0 mm
12:52 -10.7 °C -11.7 °C 34361.1 hPa SSW 15.6 km/h 36.2 km/h 89 % 0 mm
12:57 -10.7 °C -11.7 °C 34361.1 hPa SSW 7.7 km/h 36.2 km/h 89 % 0 mm
13:02 -10.7 °C -11.7 °C 34361.1 hPa SSW 15.6 km/h 36.2 km/h 89 % 0 mm
13:12 -10.8 °C -11.8 °C 34361.1 hPa SW 15.6 km/h 31.1 km/h 89 % 0 mm
13:17 -10.8 °C -11.7 °C 34361.1 hPa SW 7.7 km/h 31.1 km/h 90 % 0 mm
13:22 -10.8 °C -11.7 °C 34371.3 hPa SW 15.6 km/h 31.1 km/h 90 % 0 mm
13:27 -10.8 °C -11.7 °C 34361.1 hPa SSW 15.6 km/h 25.9 km/h 90 % 0 mm
13:32 -10.8 °C -11.7 °C 34361.1 hPa SW 18.2 km/h 25.9 km/h 90 % 0 mm
13:42 -10.8 °C -11.7 °C 34361.1 hPa SW 15.6 km/h 36.2 km/h 90 % 0 mm
13:47 -10.7 °C -11.6 °C 34361.1 hPa SW 23.3 km/h 33.6 km/h 90 % 0 mm
13:52 -10.7 °C -11.7 °C 34361.1 hPa SW 20.8 km/h 33.6 km/h 89 % 0 mm
14:02 -10.8 °C -11.8 °C 34361.1 hPa WSW 38.8 km/h 38.8 km/h 89 % 0 mm
14:12 -10.8 °C -11.7 °C 34361.1 hPa SW 28.5 km/h 46.7 km/h 90 % 0 mm
14:17 -10.9 °C -11.8 °C 34361.1 hPa SW 33.6 km/h 46.7 km/h 90 % 0 mm
14:27 -10.9 °C -11.8 °C 34361.1 hPa SW 31.1 km/h 41.4 km/h 90 % 0 mm
14:32 -10.9 °C -11.8 °C 34361.1 hPa SW 25.9 km/h 41.4 km/h 90 % 0 mm
14:42 -11 °C -11.8 °C 34347.6 hPa WSW 20.8 km/h 41.4 km/h 91 % 0 mm
14:47 -11 °C -11.8 °C 34361.1 hPa WSW 20.8 km/h 41.4 km/h 91 % 0 mm
14:52 -11 °C -11.9 °C 34361.1 hPa SW 20.8 km/h 41.4 km/h 90 % 0 mm
15:02 -11 °C -11.8 °C 34361.1 hPa SW 12.9 km/h 38.8 km/h 91 % 0 mm
15:12 -11.1 °C -11.8 °C 34361.1 hPa SSW 18.2 km/h 38.8 km/h 91 % 0 mm
15:17 -11.1 °C -11.8 °C 34361.1 hPa WSW 23.3 km/h 38.8 km/h 91 % 0 mm
15:22 -11.1 °C -11.8 °C 34361.1 hPa SW 23.3 km/h 38.8 km/h 91 % 0 mm
15:32 -11.1 °C -11.8 °C 34361.1 hPa South 18.2 km/h 38.8 km/h 91 % 0 mm
15:42 -11.1 °C -11.9 °C 34361.1 hPa SSW 15.6 km/h 36.2 km/h 91 % 0 mm
15:47 -11.2 °C -11.9 °C 34361.1 hPa SSW 18.2 km/h 36.2 km/h 92 % 0 mm
15:52 -11.2 °C -11.9 °C 34361.1 hPa SW 15.6 km/h 36.2 km/h 92 % 0 mm
16:02 -11.2 °C -11.9 °C 34361.1 hPa SW 25.9 km/h 31.1 km/h 92 % 0 mm
16:12 -11.2 °C -11.8 °C 34361.1 hPa SW 15.6 km/h 31.1 km/h 93 % 0 mm
16:17 -11.3 °C -11.9 °C 34361.1 hPa SW 25.9 km/h 31.1 km/h 93 % 0 mm
16:22 -11.3 °C -11.9 °C 34361.1 hPa SSW 10.3 km/h 31.1 km/h 93 % 0 mm
16:32 -11.3 °C -11.9 °C 34347.6 hPa SSW 20.8 km/h 25.9 km/h 93 % 0 mm
16:42 -11.4 °C -11.9 °C 34347.6 hPa SW 18.2 km/h 23.3 km/h 94 % 0 mm
16:52 -11.4 °C -11.9 °C 34361.1 hPa SSW 23.3 km/h 31.1 km/h 94 % 0 mm
16:57 -11.5 °C -12 °C 34347.6 hPa SW 18.2 km/h 31.1 km/h 94 % 0 mm
17:02 -11.5 °C -12 °C 34347.6 hPa South 12.9 km/h 31.1 km/h 94 % 0 mm
17:12 -11.6 °C -12.1 °C 34347.6 hPa SW 10.3 km/h 25.9 km/h 94 % 0 mm
17:17 -11.6 °C -12.1 °C 34361.1 hPa SSW 10.3 km/h 18.2 km/h 94 % 0 mm
17:22 -11.6 °C -12.1 °C 34361.1 hPa SW 10.3 km/h 18.2 km/h 94 % 0 mm
17:27 -11.6 °C -12.1 °C 34361.1 hPa SSW 7.7 km/h 23.3 km/h 94 % 0 mm
17:32 -11.6 °C -12.1 °C 34361.1 hPa SW 10.3 km/h 23.3 km/h 95 % 0 mm
17:37 -11.6 °C -12.1 °C 34361.1 hPa SSW 7.7 km/h 23.3 km/h 95 % 0 mm
17:42 -11.7 °C -12.1 °C 34371.3 hPa SSW 10.3 km/h 23.3 km/h 95 % 0 mm
17:47 -11.7 °C -12.2 °C 34361.1 hPa SSW 7.7 km/h 15.6 km/h 95 % 0 mm
17:57 -11.7 °C -12.2 °C 34371.3 hPa SW 5.1 km/h 15.6 km/h 95 % 0 mm
18:02 -11.7 °C -12.2 °C 34371.3 hPa SSW 10.3 km/h 15.6 km/h 95 % 0 mm
18:12 -11.7 °C -12.2 °C 34371.3 hPa SW 10.3 km/h 18.2 km/h 95 % 0 mm
18:17 -11.7 °C -12.2 °C 34371.3 hPa SSE 5.1 km/h 18.2 km/h 95 % 0 mm
18:22 -11.7 °C -12.2 °C 34371.3 hPa SW 10.3 km/h 18.2 km/h 95 % 0 mm
18:27 -11.7 °C -12.2 °C 34371.3 hPa SSW 7.7 km/h 18.2 km/h 95 % 0 mm
18:32 -11.7 °C -12.2 °C 34371.3 hPa SW 7.7 km/h 15.6 km/h 95 % 0 mm
18:42 -11.7 °C -12.2 °C 34361.1 hPa SSW 10.3 km/h 15.6 km/h 95 % 0 mm
18:52 -11.7 °C -12.2 °C 34371.3 hPa SW 10.3 km/h 15.6 km/h 95 % 0 mm
18:57 -11.7 °C -12.2 °C 34371.3 hPa SW 7.7 km/h 18.2 km/h 95 % 0 mm
19:02 -11.8 °C -12.2 °C 34371.3 hPa SSW 2.6 km/h 18.2 km/h 95 % 0 mm
19:12 -11.8 °C -12.2 °C 34361.1 hPa SSW 10.3 km/h 12.9 km/h 95 % 0 mm
19:17 -11.8 °C -12.2 °C 34371.3 hPa South 5.1 km/h 15.6 km/h 95 % 0 mm
19:22 -11.7 °C -12.2 °C 34371.3 hPa SW 18.2 km/h 18.2 km/h 95 % 0 mm
19:32 -11.8 °C -12.2 °C 34361.1 hPa SSW 5.1 km/h 18.2 km/h 95 % 0 mm
19:42 -11.8 °C -12.3 °C 34361.1 hPa SSW 7.7 km/h 18.2 km/h 95 % 0 mm
19:52 -11.8 °C -12.3 °C 34371.3 hPa SW 7.7 km/h 12.9 km/h 95 % 0 mm
20:02 -11.8 °C -12.2 °C 34361.1 hPa SSW 7.7 km/h 12.9 km/h 96 % 7.62 mm
20:12 -11.8 °C -12.2 °C 34361.1 hPa SW 10.3 km/h 10.3 km/h 96 % 33.02 mm
20:22 -11.8 °C -12.1 °C 34371.3 hPa WSW 15.6 km/h 23.3 km/h 96 % 50.8 mm
20:32 -11.7 °C -12.1 °C 34361.1 hPa SW 2.6 km/h 20.8 km/h 96 % 58.42 mm
20:37 -11.7 °C -12.1 °C 34361.1 hPa WSW 10.3 km/h 20.8 km/h 96 % 58.42 mm
20:42 -11.7 °C -12.1 °C 34361.1 hPa WSW 10.3 km/h 20.8 km/h 96 % 63.5 mm
20:47 -11.7 °C -12.1 °C 34361.1 hPa SW 5.1 km/h 20.8 km/h 96 % 63.5 mm
20:52 -11.8 °C -12.1 °C 34361.1 hPa WSW 7.7 km/h 20.8 km/h 96 % 71.12 mm
20:57 -11.8 °C -12.1 °C 34361.1 hPa WSW 5.1 km/h 12.9 km/h 96 % 71.12 mm
21:02 -11.8 °C -12.1 °C 34361.1 hPa SW 2.6 km/h 12.9 km/h 96 % 71.12 mm
21:12 -11.8 °C -12.1 °C 34361.1 hPa WSW 2.6 km/h 15.6 km/h 96 % 38.1 mm
21:17 -11.8 °C -12.2 °C 34361.1 hPa Calm   15.6 km/h 96 % 33.02 mm
21:22 -11.8 °C -12.2 °C 34361.1 hPa WSW 2.6 km/h 15.6 km/h 96 % 20.32 mm
21:32 -11.8 °C -12.2 °C 34361.1 hPa WSW 5.1 km/h 7.7 km/h 96 % 12.7 mm
21:37 -11.8 °C -12.2 °C 34347.6 hPa Calm   7.7 km/h 96 % 20.32 mm
21:47 -11.9 °C -12.2 °C 34347.6 hPa West 2.6 km/h 7.7 km/h 96 % 12.7 mm
21:52 -11.9 °C -12.2 °C 34347.6 hPa WNW 5.1 km/h 7.7 km/h 96 % 12.7 mm
22:02 -11.9 °C -12.2 °C 34347.6 hPa Calm   7.7 km/h 96 % 12.7 mm
22:07 -11.9 °C -12.2 °C 34347.6 hPa Calm   7.7 km/h 96 % 12.7 mm
22:12 -11.9 °C -12.3 °C 34347.6 hPa Calm   5.1 km/h 96 % 12.7 mm
22:17 -12 °C -12.3 °C 34347.6 hPa Calm   5.1 km/h 96 % 12.7 mm
22:22 -12 °C -12.3 °C 34347.6 hPa Calm   5.1 km/h 96 % 12.7 mm
22:32 -12 °C -12.3 °C 34347.6 hPa Calm   2.6 km/h 96 % 20.32 mm
22:42 -12.1 °C -12.4 °C 34347.6 hPa Calm   7.7 km/h 96 % 20.32 mm
22:47 -12.1 °C -12.4 °C 34347.6 hPa WSW 2.6 km/h 7.7 km/h 96 % 25.4 mm
22:52 -12.2 °C -12.7 °C 34347.6 hPa West 7.7 km/h 7.7 km/h 95 % 25.4 mm
23:02 -12.3 °C -12.8 °C 34347.6 hPa WNW 5.1 km/h 10.3 km/h 95 % 25.4 mm
23:07 -12.4 °C -12.9 °C 34347.6 hPa Calm   10.3 km/h 94 % 33.02 mm
23:12 -12.4 °C -13.1 °C 34347.6 hPa West 7.7 km/h 10.3 km/h 92 % 33.02 mm
23:22 -12.6 °C -13.3 °C 34347.6 hPa NNW 7.7 km/h 18.2 km/h 91 % 33.02 mm
23:27 -12.6 °C -13.4 °C 34337.4 hPa NW 5.1 km/h 18.2 km/h 91 % 33.02 mm
23:37 -12.7 °C -13.5 °C 34337.4 hPa Calm   12.9 km/h 91 % 38.1 mm
23:42 -12.7 °C -13.4 °C 34327.3 hPa Calm   12.9 km/h 92 % 45.72 mm
23:47 -12.8 °C -13.4 °C 34327.3 hPa Calm   5.1 km/h 92 % 45.72 mm
23:57 -12.9 °C -13.5 °C 34327.3 hPa Calm   2.6 km/h 93 % 38.1 mm
Meteo18
Compliments of Weather Underground - 4 mb

Script developed by  Jim McMurry - jmcmurry@mwt.net Adapted for the template by  Wim van der Kuil - Leuven-Template.eu

You find our weather info also at:

European Weather Network

Weather Underground

Equipment we use:

Weather-station
Davis Vue

Weather-program
Meteobridge

Weather-server
Raspberry PI 2 B+

Provider
1 and 1

Davis Vue

Meteobridge

Raspberry PI 2 B+

1 and 1